Caledon, Canada
Current Conditions -  °F | °C
As of 6:00 AM on Saturday 20 Dec 2014 (Local Time) from CYYZ Reporting Station
Scattered Clouds Scattered Clouds  
Wind Chill: 14°   Ceiling: Unl
Heat Index: 21°   Visibility: 15mi
Dew Point: 18°   Wind: 6mph
Humidity: 86%   Direction: 320°NW
Pressure: 30.29"   Gusts: NA
Location:  43.87°N, 80°W
Report Text: CYYZ 201100Z 32005KT 15SM FEW025 SCT080 SCT210 M06/M08 A3029 RMK SC1AC2CI1 FROIN SLP268
Loading
Personal Weather Stations






























Interactive Weather Map New forecast layout! Learn more

10-Day Weather Forecast

Advertisements
Track Severe Weather on mobile